Time;durP1;ratioP1;P1;durP2;ratioP2;P2;SDS_P1;SDS_P2;PMS_P1;PMS_P2;Temp;Humidity;BMP_temperature;BMP_pressure;BME280_temperature;BME280_humidity;BME280_pressure;Samples;Min_cycle;Max_cycle;Signal;HPM_P1;HPM_P2
2022/05/15 05:03:31;;;;;;;5.97;3.78;;;12.70;95.00;;;;;;6168949;23;20036;-80
2022/05/15 05:05:57;;;;;;;5.78;3.25;;;12.80;95.00;;;;;;6192864;23;20132;-80
2022/05/15 05:08:23;;;;;;;8.32;3.70;;;12.90;94.60;;;;;;6167021;23;20001;-81
2022/05/15 05:10:48;;;;;;;5.40;3.33;;;13.00;94.60;;;;;;6142163;23;20044;-80
2022/05/15 05:17:34;;;;;;;8.35;3.80;;;13.10;94.40;;;;;;6145986;23;21189;-80
2022/05/15 05:19:59;;;;;;;6.68;3.33;;;13.30;93.90;;;;;;6054858;23;20010;-82
2022/05/15 05:22:25;;;;;;;5.35;3.53;;;13.40;93.80;;;;;;6079477;23;20291;-80
2022/05/15 05:24:51;;;;;;;4.95;3.03;;;13.50;93.70;;;;;;6044627;23;20019;-81
2022/05/15 05:27:17;;;;;;;5.65;3.17;;;13.60;93.40;;;;;;5998178;23;20011;-80
2022/05/15 05:29:43;;;;;;;5.00;3.10;;;13.70;93.10;;;;;;6044835;23;20031;-80
2022/05/15 05:32:09;;;;;;;9.70;3.97;;;13.80;92.80;;;;;;6067796;23;20018;-80
2022/05/15 05:34:36;;;;;;;5.15;3.08;;;13.90;92.60;;;;;;6078456;23;20013;-79
2022/05/15 05:37:02;;;;;;;8.98;3.50;;;14.00;92.10;;;;;;6101636;23;20002;-80
2022/05/15 05:39:29;;;;;;;5.82;3.10;;;14.00;91.80;;;;;;6054176;23;20014;-80
2022/05/15 05:41:57;;;;;;;5.47;3.20;;;14.20;91.90;;;;;;6101687;23;20215;-79
2022/05/15 05:44:24;;;;;;;4.78;2.83;;;14.20;91.60;;;;;;6102379;23;20041;-78
2022/05/15 05:46:50;;;;;;;5.85;3.17;;;14.30;91.70;;;;;;6101743;23;20074;-81
2022/05/15 05:49:17;;;;;;;4.95;2.92;;;14.40;91.50;;;;;;6078787;23;20087;-81
2022/05/15 05:51:44;;;;;;;5.85;3.08;;;14.50;91.10;;;;;;6102660;23;20037;-79
2022/05/15 05:54:11;;;;;;;5.45;3.28;;;14.60;90.90;;;;;;6101914;23;20284;-80
2022/05/15 05:56:37;;;;;;;4.90;2.95;;;14.70;90.80;;;;;;6127357;23;20048;-80
2022/05/15 05:59:03;;;;;;;6.65;3.45;;;14.70;90.50;;;;;;6137288;23;20306;-80
2022/05/15 06:01:29;;;;;;;6.93;3.38;;;14.80;90.40;;;;;;6137156;23;20021;-81
2022/05/15 06:06:39;;;;;;;6.80;3.40;;;15.10;90.40;;;;;;6137454;23;20027;-79
2022/05/15 06:09:05;;;;;;;6.78;2.88;;;15.20;90.00;;;;;;6136799;23;20016;-79
2022/05/15 06:11:31;;;;;;;6.40;2.83;;;15.30;89.70;;;;;;6164282;23;20005;-80
2022/05/15 06:13:57;;;;;;;7.10;2.60;;;15.50;89.10;;;;;;6114725;23;20012;-81
2022/05/15 06:16:23;;;;;;;4.82;2.72;;;15.60;88.10;;;;;;6138726;23;20049;-80
2022/05/15 06:18:48;;;;;;;3.60;2.42;;;15.60;88.30;;;;;;6184252;23;20009;-80
2022/05/15 06:21:14;;;;;;;6.50;3.10;;;15.80;87.70;;;;;;6194921;23;20020;-79
2022/05/15 06:23:40;;;;;;;7.03;2.65;;;15.90;86.60;;;;;;6144702;23;20012;-79
2022/05/15 06:26:06;;;;;;;5.20;2.67;;;15.90;86.50;;;;;;6168819;23;20001;-82
2022/05/15 06:28:34;;;;;;;5.50;2.63;;;16.10;86.60;;;;;;6195646;23;20008;-81
2022/05/15 06:31:01;;;;;;;5.72;2.80;;;16.20;85.60;;;;;;6167970;23;20036;-81
2022/05/15 06:33:27;;;;;;;4.35;2.60;;;16.30;86.20;;;;;;6144639;23;20013;-80
2022/05/15 06:35:53;;;;;;;4.35;2.70;;;16.50;85.50;;;;;;6144440;23;20021;-81
2022/05/15 06:38:19;;;;;;;7.00;2.58;;;16.70;85.10;;;;;;6144639;23;20267;-81
2022/05/15 06:40:45;;;;;;;4.97;2.35;;;16.80;84.20;;;;;;6144221;23;20083;-80
2022/05/15 06:43:10;;;;;;;4.22;2.45;;;16.90;83.30;;;;;;6168059;23;20052;-81
2022/05/15 06:45:36;;;;;;;3.85;2.00;;;17.00;84.00;;;;;;6168427;23;19997;-80
2022/05/15 06:48:02;;;;;;;4.93;2.58;;;17.10;82.20;;;;;;6168608;23;20008;-82
2022/05/15 06:50:28;;;;;;;5.63;2.60;;;17.20;82.00;;;;;;6170809;23;20012;-81
2022/05/15 06:52:57;;;;;;;5.05;2.20;;;17.30;81.20;;;;;;6195258;23;20009;-80
2022/05/15 06:55:24;;;;;;;5.70;2.95;;;17.40;81.10;;;;;;6169022;23;20005;-80
2022/05/15 06:57:51;;;;;;;7.97;2.95;;;17.50;81.70;;;;;;6169426;23;20065;-79
2022/05/15 07:00:29;;;;;;;3.22;2.10;;;17.60;81.60;;;;;;6193829;23;19996;-80
2022/05/15 07:02:55;;;;;;;6.28;2.47;;;17.70;80.40;;;;;;6144314;23;20341;-79
2022/05/15 07:05:24;;;;;;;4.88;2.20;;;17.70;81.20;;;;;;6169178;23;20093;-79
2022/05/15 07:07:52;;;;;;;7.05;2.55;;;17.80;80.40;;;;;;6192870;23;20231;-81
2022/05/15 07:44:57;;;;;;;3.50;1.50;;;19.50;74.20;;;;;;6068954;23;20026;31
2022/05/15 07:47:24;;;;;;;3.75;1.67;;;19.60;73.40;;;;;;6100978;23;20259;-80
2022/05/15 07:49:50;;;;;;;4.10;1.63;;;19.80;73.00;;;;;;6059914;23;20045;-79
2022/05/15 07:52:16;;;;;;;2.75;1.58;;;19.80;72.70;;;;;;6107941;23;20006;-78
2022/05/15 07:54:42;;;;;;;5.82;1.85;;;20.00;72.90;;;;;;6084455;23;20160;-81
2022/05/15 07:57:11;;;;;;;3.42;1.48;;;20.10;72.50;;;;;;6108133;23;20069;-80
2022/05/15 07:59:42;;;;;;;4.82;1.70;;;20.20;72.10;;;;;;6163418;23;20013;-80
2022/05/15 08:02:08;;;;;;;4.53;1.48;;;20.40;71.60;;;;;;6123306;23;20025;-80
2022/05/15 08:10:39;;;;;;;4.05;1.77;;;20.90;70.50;;;;;;6193633;23;20014;-78
2022/05/15 08:13:06;;;;;;;3.80;1.70;;;21.10;70.90;;;;;;6166294;23;20015;-81
2022/05/15 08:15:33;;;;;;;5.10;1.67;;;21.20;71.20;;;;;;6166425;23;20016;-80
2022/05/15 08:24:42;;;;;;;3.38;1.40;;;21.40;69.90;;;;;;6200303;23;20156;-81
2022/05/15 08:27:09;;;;;;;5.00;1.50;;;21.60;69.80;;;;;;6194379;23;20231;-82
2022/05/15 08:30:15;;;;;;;3.55;1.60;;;21.70;69.80;;;;;;6194011;23;20064;-78
2022/05/15 08:33:41;;;;;;;5.78;1.40;;;21.90;69.90;;;;;;6133256;23;20067;-79
2022/05/15 08:36:07;;;;;;;6.43;2.08;;;22.00;69.60;;;;;;6192305;23;20051;-81
2022/05/15 08:38:37;;;;;;;3.63;1.90;;;22.10;69.50;;;;;;6143705;23;20238;-82
2022/05/15 08:41:24;;;;;;;2.78;1.27;;;22.00;68.70;;;;;;6192654;23;20067;-82
2022/05/15 08:44:01;;;;;;;6.25;1.70;;;22.10;68.70;;;;;;6145817;23;20267;-82
2022/05/15 08:46:48;;;;;;;;;;;22.10;68.80;;;;;;6188598;23;20023;-83
2022/05/15 08:49:51;;;;;;;6.45;1.52;;;22.40;69.30;;;;;;6192346;23;19920;-79
2022/05/15 08:52:36;;;;;;;5.13;1.88;;;22.50;69.20;;;;;;6168944;23;20055;-83
2022/05/15 08:58:45;;;;;;;3.42;1.25;;;22.70;70.40;;;;;;6193948;23;20009;-80
2022/05/15 09:01:17;;;;;;;5.68;1.52;;;22.90;69.10;;;;;;6191668;23;20263;-80
2022/05/15 09:03:43;;;;;;;4.97;1.52;;;23.10;69.10;;;;;;6168599;23;20028;-79
2022/05/15 09:06:38;;;;;;;5.95;1.58;;;23.20;68.10;;;;;;6193222;23;19992;-78
2022/05/15 09:09:22;;;;;;;5.07;1.52;;;23.20;67.70;;;;;;6142402;23;20004;-79
2022/05/15 09:12:17;;;;;;;5.20;1.50;;;23.30;67.80;;;;;;6167297;23;20005;-79
2022/05/15 09:15:04;;;;;;;4.35;1.75;;;23.50;67.10;;;;;;6192343;23;20000;-79
2022/05/15 09:17:30;;;;;;;3.78;1.20;;;23.60;67.60;;;;;;6193568;23;20138;-78
2022/05/15 09:20:07;;;;;;;3.55;1.70;;;23.60;64.80;;;;;;6168072;23;20260;-78
2022/05/15 09:22:37;;;;;;;4.72;1.35;;;23.60;66.00;;;;;;6167728;23;20055;-80
2022/05/15 09:25:14;;;;;;;3.78;1.20;;;23.70;66.10;;;;;;6167521;23;20068;-79
2022/05/15 09:28:04;;;;;;;3.67;1.20;;;23.70;66.00;;;;;;6194555;23;19997;-78
2022/05/15 09:30:33;;;;;;;3.88;1.38;;;23.80;64.90;;;;;;6166171;23;20017;-78
2022/05/15 09:32:59;;;;;;;5.45;1.20;;;23.90;65.70;;;;;;6167707;23;20195;-79
2022/05/15 09:35:36;;;;;;;4.15;1.30;;;24.10;65.30;;;;;;6193471;23;20043;-77
2022/05/15 09:43:51;;;;;;;3.95;1.40;;;24.50;63.90;;;;;;6191491;23;20334;-77
2022/05/15 09:46:20;;;;;;;6.28;1.15;;;24.60;63.00;;;;;;6193632;23;20040;-77
2022/05/15 09:49:01;;;;;;;3.20;1.20;;;24.60;62.60;;;;;;6170581;23;20023;-77
2022/05/15 09:55:15;;;;;;;2.15;0.90;;;24.70;62.90;;;;;;6196244;23;19997;-78
2022/05/15 09:57:54;;;;;;;6.03;1.42;;;24.90;62.90;;;;;;6195279;23;20004;-79
2022/05/15 10:00:51;;;;;;;3.45;1.42;;;24.90;61.60;;;;;;6175289;23;20019;-78
2022/05/15 10:03:25;;;;;;;4.35;1.02;;;24.90;61.20;;;;;;6119898;23;20001;-81
2022/05/15 10:06:06;;;;;;;5.60;1.42;;;25.10;62.30;;;;;;6195914;23;20028;-78
2022/05/15 10:08:35;;;;;;;3.38;1.30;;;25.20;62.40;;;;;;6195671;23;20088;-79
2022/05/15 10:11:08;;;;;;;4.60;1.58;;;25.30;61.50;;;;;;6197013;23;20005;-80
2022/05/15 10:14:12;;;;;;;4.93;1.33;;;25.30;61.60;;;;;;6197079;23;20017;-81
2022/05/15 10:17:05;;;;;;;4.22;1.70;;;25.50;62.00;;;;;;6196417;23;20068;-79
2022/05/15 10:19:51;;;;;;;4.80;1.15;;;25.60;60.50;;;;;;6193002;23;20012;-81
2022/05/15 10:22:22;;;;;;;4.25;1.42;;;25.50;59.20;;;;;;6170788;23;20070;-81
2022/05/15 10:28:24;;;;;;;3.55;1.20;;;25.50;60.70;;;;;;6077193;23;20066;-81
2022/05/15 10:34:37;;;;;;;4.93;1.27;;;25.30;61.40;;;;;;6075836;23;20094;-81
2022/05/15 10:37:21;;;;;;;4.25;1.42;;;25.40;60.40;;;;;;6076953;23;20003;-83
2022/05/15 10:40:03;;;;;;;2.72;1.20;;;25.50;60.50;;;;;;6052887;23;20233;-82
2022/05/15 10:42:37;;;;;;;3.38;0.85;;;25.50;59.60;;;;;;6052129;23;20074;-81
2022/05/15 10:45:20;;;;;;;7.03;1.90;;;25.50;59.90;;;;;;6051636;23;20007;-82
2022/05/15 10:48:13;;;;;;;4.65;2.10;;;25.80;60.60;;;;;;6077130;23;20114;-81
2022/05/15 10:51:04;;;;;;;5.68;1.58;;;26.00;61.20;;;;;;6076536;23;20007;-79
2022/05/15 10:57:27;;;;;;;4.60;1.00;;;26.40;60.20;;;;;;6076191;23;20070;-81
2022/05/15 11:00:02;;;;;;;3.78;1.40;;;26.80;59.20;;;;;;6052052;23;20007;-81
2022/05/15 11:02:54;;;;;;;2.65;1.48;;;26.90;58.40;;;;;;6050749;23;20098;-82
2022/05/15 11:05:32;;;;;;;4.95;1.90;;;27.10;58.50;;;;;;6139945;23;20043;-81
2022/05/15 11:08:11;;;;;;;3.15;1.40;;;27.10;58.60;;;;;;6195911;23;20305;-81
2022/05/15 11:11:23;;;;;;;4.13;1.10;;;27.10;58.60;;;;;;6195229;23;20001;-81
2022/05/15 11:14:09;;;;;;;3.35;1.50;;;27.20;57.90;;;;;;6194019;23;20009;-82
2022/05/15 11:17:13;;;;;;;3.47;1.13;;;27.30;58.00;;;;;;6167714;23;20011;-81
2022/05/15 11:19:49;;;;;;;2.58;1.35;;;27.40;57.80;;;;;;6196064;23;20005;-81
2022/05/15 11:22:19;;;;;;;4.60;0.98;;;27.50;57.70;;;;;;6172611;23;19997;-80
2022/05/15 11:25:09;;;;;;;2.90;1.10;;;27.90;57.40;;;;;;6197029;23;20061;-81
2022/05/15 11:27:51;;;;;;;3.28;1.10;;;28.30;55.10;;;;;;6143166;23;20036;-82
2022/05/15 11:30:28;;;;;;;4.15;1.40;;;28.80;54.30;;;;;;6193885;23;20004;-81
2022/05/15 11:32:53;;;;;;;4.10;1.20;;;29.40;53.90;;;;;;6168467;23;20112;-81
2022/05/15 11:35:20;;;;;;;5.53;1.00;;;29.80;52.70;;;;;;6194171;23;20283;-82
2022/05/15 11:38:05;;;;;;;4.75;1.40;;;30.60;52.30;;;;;;6168923;23;20004;-81
2022/05/15 11:40:48;;;;;;;2.63;1.00;;;31.70;51.50;;;;;;6194545;23;20000;-81
2022/05/15 11:43:26;;;;;;;3.05;1.10;;;32.70;50.70;;;;;;6193174;23;20001;-81
2022/05/15 11:46:06;;;;;;;4.38;0.88;;;33.60;49.60;;;;;;6168203;23;20228;-82
2022/05/15 11:48:49;;;;;;;6.05;1.52;;;34.00;49.10;;;;;;6192891;23;20248;-81
2022/05/15 11:51:14;;;;;;;2.88;1.08;;;34.30;47.80;;;;;;6169219;23;20076;-83
2022/05/15 11:54:07;;;;;;;2.53;0.95;;;34.20;48.30;;;;;;6144011;23;20001;-80
2022/05/15 11:56:53;;;;;;;2.75;0.90;;;34.90;47.30;;;;;;6193706;23;20009;-81
2022/05/15 11:59:27;;;;;;;2.03;0.82;;;35.60;46.80;;;;;;6143369;23;20172;-80
2022/05/15 12:01:56;;;;;;;2.85;0.90;;;36.10;46.10;;;;;;6192197;23;20025;-80
2022/05/15 12:04:34;;;;;;;3.83;1.00;;;36.60;45.30;;;;;;6167699;23;20024;-80
2022/05/15 12:06:59;;;;;;;3.67;0.80;;;36.60;44.90;;;;;;6199084;23;20005;-80
2022/05/15 12:09:39;;;;;;;2.35;0.90;;;36.90;44.60;;;;;;6195563;23;20004;-81
2022/05/15 12:12:44;;;;;;;3.65;1.20;;;38.30;44.50;;;;;;6194297;23;20291;-80
2022/05/15 12:15:27;;;;;;;3.95;0.80;;;38.20;43.40;;;;;;6193512;23;20357;-81
2022/05/15 12:17:56;;;;;;;2.20;0.82;;;37.60;43.80;;;;;;6180356;23;20096;-81
2022/05/15 12:20:36;;;;;;;2.60;0.80;;;39.10;43.70;;;;;;6209308;23;20056;-81
2022/05/15 12:23:15;;;;;;;2.75;0.90;;;39.90;43.00;;;;;;6211085;23;20161;-80
2022/05/15 13:59:41;;;;;;;2.65;0.80;;;47.40;36.60;;;;;;6124804;23;20090;-80
2022/05/15 14:02:25;;;;;;;1.92;0.68;;;46.50;36.20;;;;;;6165894;23;20013;-80
2022/05/15 14:05:15;;;;;;;2.10;1.00;;;45.90;35.60;;;;;;6166652;23;20032;-80
2022/05/15 14:07:43;;;;;;;1.60;0.70;;;46.20;35.80;;;;;;6166153;23;20009;-80
2022/05/15 14:10:16;;;;;;;2.22;0.80;;;46.90;35.50;;;;;;6193087;23;20156;-80
2022/05/15 14:12:53;;;;;;;2.20;0.80;;;47.90;35.80;;;;;;6166669;23;20067;-80
2022/05/15 14:15:41;;;;;;;2.40;0.70;;;46.70;35.50;;;;;;6192229;23;20005;-79
2022/05/15 14:18:25;;;;;;;1.80;0.70;;;46.70;35.90;;;;;;6166790;23;19998;-81
2022/05/15 15:00:45;;;;;;;2.03;0.80;;;49.90;34.80;;;;;;6221245;23;20083;-80
2022/05/15 15:03:10;;;;;;;2.03;0.60;;;49.30;34.10;;;;;;6197822;23;20000;-80
2022/05/15 15:05:47;;;;;;;1.88;0.80;;;50.50;34.90;;;;;;6197112;23;20430;-80
2022/05/15 15:08:18;;;;;;;2.83;0.90;;;50.50;34.00;;;;;;6197533;23;19996;-79
2022/05/15 15:10:44;;;;;;;4.18;1.10;;;48.50;34.10;;;;;;6197310;23;20008;-79
2022/05/15 15:13:11;;;;;;;2.55;0.75;;;48.10;34.50;;;;;;6224718;23;20289;-80
2022/05/15 15:15:39;;;;;;;1.70;0.60;;;47.90;34.40;;;;;;6222686;23;20056;-79
2022/05/15 15:18:05;;;;;;;1.58;0.60;;;47.60;34.30;;;;;;6224328;23;20001;-79
2022/05/15 15:20:32;;;;;;;1.83;0.80;;;47.80;35.00;;;;;;6197070;23;20062;-79
2022/05/15 15:22:58;;;;;;;3.42;0.85;;;47.80;34.30;;;;;;6224060;23;20053;-79
2022/05/15 15:25:24;;;;;;;3.50;0.90;;;47.60;34.40;;;;;;6224622;23;20004;-79
2022/05/15 15:27:50;;;;;;;2.87;0.80;;;47.50;35.00;;;;;;6224049;23;19996;-80
2022/05/15 15:30:15;;;;;;;3.10;0.90;;;48.80;34.50;;;;;;6224059;23;20297;-80
2022/05/15 15:32:41;;;;;;;2.97;1.10;;;48.60;34.50;;;;;;6197009;23;20470;-80
2022/05/15 16:25:01;;;;;;;1.80;0.80;;;47.00;35.20;;;;;;6034499;23;20015;-79
2022/05/15 16:32:24;;;;;;;3.05;0.90;;;45.40;34.80;;;;;;6075401;23;20208;-79
2022/05/15 16:34:50;;;;;;;2.50;1.15;;;45.60;35.50;;;;;;6072475;23;20208;-79
2022/05/15 16:37:16;;;;;;;2.90;0.90;;;45.10;36.00;;;;;;6081773;23;20002;-79
2022/05/15 16:39:43;;;;;;;2.75;1.00;;;44.50;35.60;;;;;;6166780;23;20000;-79
2022/05/15 16:42:10;;;;;;;2.90;0.80;;;42.70;36.80;;;;;;6142972;23;20194;-80
2022/05/15 16:44:38;;;;;;;2.30;1.08;;;40.90;38.00;;;;;;6191674;23;19993;-79
2022/05/15 16:47:04;;;;;;;6.03;2.72;;;39.50;38.60;;;;;;6192972;23;20023;-79
2022/05/15 16:49:31;;;;;;;3.47;1.55;;;37.70;39.60;;;;;;6193641;23;20008;-80
2022/05/15 16:51:56;;;;;;;3.78;1.90;;;36.30;41.00;;;;;;6192393;23;20013;-80
2022/05/15 16:54:22;;;;;;;7.25;4.15;;;35.40;41.00;;;;;;6167069;23;20192;-80
2022/05/15 16:57:11;;;;;;;3.35;1.70;;;35.00;41.70;;;;;;6193601;23;20001;-78
2022/05/15 16:59:37;;;;;;;3.13;1.40;;;34.30;42.00;;;;;;6142444;23;20008;-77
2022/05/15 17:02:07;;;;;;;3.38;1.38;;;33.90;43.10;;;;;;6179880;23;20012;-77
2022/05/15 17:04:35;;;;;;;3.15;0.95;;;33.80;42.80;;;;;;6209784;23;20021;-79
2022/05/15 17:07:27;;;;;;;2.88;1.20;;;33.30;43.10;;;;;;6210430;23;19997;-78
2022/05/15 17:09:56;;;;;;;4.20;1.30;;;32.90;43.30;;;;;;6200071;23;20067;-79
2022/05/15 17:12:53;;;;;;;4.18;1.70;;;32.60;43.90;;;;;;6194932;23;20028;-80
2022/05/15 17:15:27;;;;;;;4.70;1.52;;;32.80;44.00;;;;;;6190005;23;20005;-78
2022/05/15 17:17:53;;;;;;;4.72;1.40;;;33.00;43.20;;;;;;6193198;23;20001;-79
2022/05/15 17:24:27;;;;;;;4.07;1.88;;;33.10;42.30;;;;;;6198137;23;20041;-81
2022/05/15 17:27:06;;;;;;;3.22;1.70;;;33.10;42.50;;;;;;6194291;23;20024;-79
2022/05/15 17:35:07;;;;;;;5.53;1.33;;;35.30;41.50;;;;;;6193839;23;20172;-77
2022/05/15 17:37:37;;;;;;;5.32;1.15;;;35.70;40.40;;;;;;6193590;23;20079;-78
2022/05/15 17:40:19;;;;;;;4.72;1.38;;;36.70;40.80;;;;;;6143447;23;20027;-79
2022/05/15 17:42:45;;;;;;;5.10;1.33;;;37.20;39.90;;;;;;6142654;23;20009;-78
2022/05/15 17:45:14;;;;;;;8.82;1.55;;;38.20;39.50;;;;;;6193040;23;20041;-77
2022/05/15 17:47:40;;;;;;;2.72;1.02;;;38.80;39.50;;;;;;6193077;23;20072;-77
2022/05/15 17:50:18;;;;;;;3.30;1.00;;;38.50;39.10;;;;;;6193017;23;20015;-79
2022/05/15 17:52:44;;;;;;;4.82;1.08;;;38.60;38.80;;;;;;6186331;23;20025;-78
2022/05/15 17:55:11;;;;;;;2.90;1.10;;;38.80;38.80;;;;;;6164218;23;20183;-77
2022/05/15 17:57:38;;;;;;;2.63;1.03;;;38.30;39.40;;;;;;6162867;23;20012;-77
2022/05/15 18:00:11;;;;;;;4.00;1.35;;;37.60;39.00;;;;;;6136667;23;20416;-79
2022/05/15 18:02:37;;;;;;;3.58;0.88;;;37.00;40.50;;;;;;6112902;23;20014;-76
2022/05/15 18:05:04;;;;;;;2.30;1.05;;;36.10;40.60;;;;;;6163898;23;20191;-76
2022/05/15 18:08:08;;;;;;;4.53;1.10;;;34.60;41.40;;;;;;6165366;23;20013;-79
2022/05/15 18:10:57;;;;;;;3.20;1.20;;;33.20;43.10;;;;;;5998404;23;20070;-79
2022/05/15 18:13:22;;;;;;;;;;;32.10;44.50;;;;;;6021122;23;20067;-78
2022/05/15 18:15:54;;;;;;;2.03;1.00;;;31.00;44.50;;;;;;6143590;23;19920;-79
2022/05/15 18:18:20;;;;;;;2.38;1.15;;;30.50;45.60;;;;;;6145050;23;20037;-77
2022/05/15 18:20:46;;;;;;;3.88;1.30;;;30.10;46.10;;;;;;6113940;23;20075;-78
2022/05/15 18:23:13;;;;;;;6.38;1.75;;;29.80;47.00;;;;;;6105247;23;20295;-79
2022/05/15 18:25:45;;;;;;;2.93;1.20;;;29.40;46.70;;;;;;6055727;23;20010;-78
2022/05/15 18:28:36;;;;;;;6.15;1.33;;;29.00;47.40;;;;;;6079633;23;20069;-79
2022/05/15 18:31:14;;;;;;;3.55;1.10;;;28.60;48.20;;;;;;6091014;23;20204;-78
2022/05/15 18:34:11;;;;;;;3.40;1.10;;;28.30;49.10;;;;;;6134257;23;20013;-78
2022/05/15 18:36:38;;;;;;;3.55;1.20;;;28.10;49.20;;;;;;6134781;23;20102;-78
2022/05/15 18:39:05;;;;;;;4.90;1.10;;;27.80;49.90;;;;;;6135003;23;20002;-79
2022/05/15 18:41:40;;;;;;;6.65;2.10;;;27.50;50.30;;;;;;6134244;23;20006;-81
2022/05/15 18:44:09;;;;;;;5.85;2.15;;;27.30;50.70;;;;;;6134743;23;20029;-78
2022/05/15 18:56:17;;;;;;;3.63;1.48;;;26.30;52.40;;;;;;6133627;23;20136;-81
2022/05/15 18:58:42;;;;;;;5.82;1.40;;;26.00;52.90;;;;;;6135528;23;20016;-80
2022/05/15 19:01:09;;;;;;;7.97;1.80;;;25.80;53.20;;;;;;6143941;23;20014;-80
2022/05/15 19:03:35;;;;;;;3.95;1.60;;;25.70;53.40;;;;;;6145819;23;20017;-80
2022/05/15 19:06:01;;;;;;;4.80;1.90;;;25.50;53.50;;;;;;6115917;23;20010;-79
2022/05/15 19:08:28;;;;;;;4.50;1.77;;;25.30;53.90;;;;;;6130316;23;20006;-81
2022/05/15 19:11:18;;;;;;;4.95;2.08;;;25.20;54.30;;;;;;6134457;23;20017;-78
2022/05/15 19:14:34;;;;;;;6.78;2.65;;;25.00;54.40;;;;;;6133600;23;20117;-79
2022/05/15 19:17:00;;;;;;;5.78;2.00;;;24.90;55.10;;;;;;6133427;23;20315;-79
2022/05/15 19:19:29;;;;;;;4.75;2.10;;;24.70;55.90;;;;;;6133833;23;20184;-80
2022/05/15 19:21:55;;;;;;;4.75;2.00;;;24.60;56.10;;;;;;6108046;23;20025;-79
2022/05/15 19:43:38;;;;;;;6.25;3.10;;;23.70;57.00;;;;;;6115001;23;20077;-80
2022/05/15 19:46:04;;;;;;;6.53;2.92;;;23.50;57.70;;;;;;6133208;23;20017;-79
2022/05/15 20:27:23;;;;;;;3.92;2.05;;;22.30;65.20;;;;;;6081092;23;20024;-81
2022/05/15 20:29:48;;;;;;;5.90;2.28;;;22.30;65.40;;;;;;6164694;23;20140;-81
2022/05/15 20:32:14;;;;;;;5.05;2.35;;;22.10;66.00;;;;;;6141088;23;20017;-81
2022/05/15 20:34:40;;;;;;;5.32;2.15;;;22.10;67.70;;;;;;6143354;23;20012;-81
2022/05/15 20:37:12;;;;;;;3.88;1.98;;;22.00;67.90;;;;;;6167318;23;20017;-81
2022/05/15 20:39:40;;;;;;;7.38;2.63;;;21.80;67.30;;;;;;6193475;23;20001;-80
2022/05/15 20:42:06;;;;;;;14.73;7.63;;;21.80;68.50;;;;;;6166412;23;20009;-80
2022/05/15 20:44:33;;;;;;;10.55;5.40;;;21.70;69.70;;;;;;6166883;23;20008;-81
2022/05/15 20:47:00;;;;;;;16.83;9.40;;;21.60;70.40;;;;;;6191805;23;20057;-80
2022/05/15 20:49:26;;;;;;;15.90;8.10;;;21.40;70.30;;;;;;6167234;23;20024;-81
2022/05/15 20:51:52;;;;;;;8.65;4.80;;;21.30;70.30;;;;;;6192543;23;20012;-79
2022/05/15 20:54:20;;;;;;;21.40;10.73;;;21.20;69.70;;;;;;6191703;23;20028;-83
2022/05/15 20:56:50;;;;;;;11.27;6.05;;;21.20;69.60;;;;;;6166684;23;20114;-83
2022/05/15 20:59:17;;;;;;;15.68;8.98;;;21.10;69.00;;;;;;6165803;23;20055;-82
2022/05/15 21:01:44;;;;;;;13.68;7.72;;;21.20;68.30;;;;;;6164545;23;20080;-82
2022/05/15 21:04:36;;;;;;;8.82;5.03;;;21.20;68.90;;;;;;6166196;23;20005;-82
2022/05/15 21:07:05;;;;;;;10.10;5.40;;;21.20;67.80;;;;;;6166874;23;20004;-83
2022/05/15 21:09:31;;;;;;;10.15;6.00;;;21.20;68.90;;;;;;6166966;23;20069;-83
2022/05/15 21:11:57;;;;;;;11.98;6.07;;;21.00;68.20;;;;;;6166898;23;20016;-82
2022/05/15 21:14:23;;;;;;;16.42;9.55;;;21.00;69.90;;;;;;6176880;23;20005;-83
2022/05/15 21:20:36;;;;;;;6.45;2.65;;;20.80;70.50;;;;;;6192744;23;20076;-83
2022/05/15 21:23:01;;;;;;;11.77;4.50;;;20.80;70.00;;;;;;6166119;23;20008;-84
2022/05/15 21:25:28;;;;;;;6.07;3.20;;;20.70;71.50;;;;;;6166432;23;20302;-82
2022/05/15 21:27:54;;;;;;;8.95;4.28;;;20.60;70.80;;;;;;6141366;23;20028;-83
2022/05/15 21:30:20;;;;;;;5.22;3.10;;;20.70;71.50;;;;;;6141191;23;20051;-82
2022/05/15 21:32:46;;;;;;;5.95;3.10;;;20.60;72.00;;;;;;6142599;23;20043;-83
2022/05/15 21:35:12;;;;;;;7.35;3.50;;;20.60;71.50;;;;;;6166214;23;20023;-83
2022/05/15 21:37:38;;;;;;;9.55;5.28;;;20.60;71.20;;;;;;6167956;23;19997;-81
2022/05/15 21:45:35;;;;;;;8.43;4.20;;;20.30;71.60;;;;;;6198096;23;20019;-82
2022/05/15 21:48:01;;;;;;;7.28;3.38;;;20.20;73.40;;;;;;6167714;23;20012;-82
2022/05/15 21:50:27;;;;;;;9.82;5.38;;;20.10;72.70;;;;;;6195020;23;20037;-83
2022/05/15 21:52:52;;;;;;;6.75;3.80;;;20.10;75.20;;;;;;6194149;23;20005;-84
2022/05/15 21:55:20;;;;;;;8.18;3.40;;;20.10;75.20;;;;;;6169524;23;20055;-84
2022/05/15 21:57:45;;;;;;;5.57;3.28;;;20.00;77.30;;;;;;6194565;23;20001;-83
2022/05/15 22:00:30;;;;;;;7.07;3.25;;;20.00;76.80;;;;;;6166847;23;19996;-80
2022/05/15 22:02:56;;;;;;;8.10;3.63;;;19.90;78.00;;;;;;6167204;23;20060;-83
2022/05/15 22:05:22;;;;;;;6.60;3.00;;;19.80;78.90;;;;;;6167235;23;19997;-83
2022/05/15 22:07:48;;;;;;;7.20;3.25;;;19.80;80.60;;;;;;6167706;23;20012;-83
2022/05/15 22:10:14;;;;;;;6.65;3.15;;;19.70;83.70;;;;;;6193510;23;20291;-83
2022/05/15 22:12:40;;;;;;;7.43;3.28;;;19.70;83.40;;;;;;6193540;23;20025;-82
2022/05/15 22:15:06;;;;;;;6.50;3.20;;;19.60;76.90;;;;;;6192259;23;20040;-82
2022/05/15 22:17:32;;;;;;;6.25;3.15;;;19.40;75.90;;;;;;6167363;23;19997;-82
2022/05/15 22:20:00;;;;;;;5.75;2.97;;;19.30;77.50;;;;;;6193201;23;20178;-82
2022/05/15 22:22:28;;;;;;;5.70;3.05;;;19.30;77.80;;;;;;6167221;23;20325;-84
2022/05/15 22:24:55;;;;;;;7.10;3.28;;;19.30;77.30;;;;;;6167564;23;20023;-82
2022/05/15 22:27:23;;;;;;;6.65;2.20;;;19.20;77.70;;;;;;6142604;23;20019;-82
2022/05/15 22:29:48;;;;;;;7.72;1.98;;;19.20;77.90;;;;;;6167941;23;20013;-82
2022/05/15 22:32:14;;;;;;;7.05;2.72;;;19.20;75.50;;;;;;6166090;23;20072;-82
2022/05/15 22:34:40;;;;;;;4.18;2.40;;;19.20;75.90;;;;;;6167658;23;20005;-82
2022/05/15 22:37:06;;;;;;;4.60;2.35;;;19.20;75.60;;;;;;6167093;23;20172;-83
2022/05/15 22:39:31;;;;;;;4.85;2.47;;;19.10;75.90;;;;;;6167756;23;20168;-82
2022/05/15 22:41:57;;;;;;;6.38;2.65;;;19.10;75.40;;;;;;6167285;23;20012;-83
2022/05/15 22:44:23;;;;;;;3.97;2.42;;;19.10;75.10;;;;;;6167918;23;20064;-82
2022/05/15 22:46:49;;;;;;;6.53;2.50;;;19.00;75.20;;;;;;6193250;23;20021;-82
2022/05/15 22:49:15;;;;;;;6.03;2.58;;;19.00;76.90;;;;;;6193744;23;20001;-83
2022/05/15 22:51:40;;;;;;;5.03;2.50;;;18.90;78.00;;;;;;6194173;23;20060;-82
2022/05/15 22:54:08;;;;;;;5.20;2.42;;;18.80;77.20;;;;;;6168788;23;20005;-83
2022/05/15 22:56:35;;;;;;;4.90;2.17;;;18.60;76.50;;;;;;6195859;23;20021;-83
